Time;durP1;ratioP1;P1;durP2;ratioP2;P2;SDS_P1;SDS_P2;PMS_P1;PMS_P2;Temp;Humidity;BMP_temperature;BMP_pressure;BME280_temperature;BME280_humidity;BME280_pressure;Samples;Min_cycle;Max_cycle;Signal;HPM_P1;HPM_P2
2022/11/14 00:02:03;;;;;;;14.20;7.07;;;;;;;18.13;54.42;101054.97;5008959;28;20046;-48
2022/11/14 00:04:29;;;;;;;19.70;8.73;;;;;;;18.12;54.57;101054.09;5016056;28;20146;-49
2022/11/14 00:06:54;;;;;;;20.73;8.20;;;;;;;18.12;54.83;101051.47;5016130;28;20076;-51
2022/11/14 00:09:24;;;;;;;20.17;8.95;;;;;;;18.11;54.80;101046.31;4999377;28;20089;-52
2022/11/14 00:11:50;;;;;;;16.13;6.55;;;;;;;18.12;54.67;101050.66;5018541;28;20033;-50
2022/11/14 00:14:15;;;;;;;17.92;7.05;;;;;;;18.11;54.63;101043.69;5019941;28;20087;-48
2022/11/14 00:16:40;;;;;;;19.65;8.75;;;;;;;18.11;54.79;101046.31;5006983;28;20153;-49
2022/11/14 00:19:06;;;;;;;16.63;7.88;;;;;;;18.09;54.76;101049.00;4995610;28;20157;-49
2022/11/14 00:21:31;;;;;;;21.23;8.43;;;;;;;18.09;54.63;101046.38;4993796;28;20414;-50
2022/11/14 00:23:57;;;;;;;18.92;7.55;;;;;;;18.10;54.76;101041.97;4996028;28;20671;-50
2022/11/14 00:26:22;;;;;;;17.42;8.45;;;;;;;18.09;54.73;101046.38;4988782;28;20042;-51
2022/11/14 00:28:47;;;;;;;18.00;7.35;;;;;;;18.08;54.65;101038.56;4995532;28;20057;-51
2022/11/14 00:31:13;;;;;;;19.63;8.82;;;;;;;18.07;54.69;101037.72;4996059;28;20038;-50
2022/11/14 00:33:38;;;;;;;15.38;7.30;;;;;;;18.08;54.68;101030.69;4994508;28;20368;-51
2022/11/14 00:36:04;;;;;;;17.55;8.07;;;;;;;18.08;54.54;101030.69;4995484;28;20058;-50
2022/11/14 00:38:29;;;;;;;18.40;7.20;;;;;;;18.07;54.70;101029.81;4994932;28;20036;-48
2022/11/14 00:40:55;;;;;;;18.92;8.07;;;;;;;18.06;54.75;101022.88;4998443;28;20112;-52
2022/11/14 00:43:20;;;;;;;22.05;9.35;;;;;;;18.06;54.55;101024.66;4990484;28;20045;-52
2022/11/14 00:45:46;;;;;;;19.77;8.25;;;;;;;18.04;54.65;101008.06;4992642;28;20062;-53
2022/11/14 00:48:13;;;;;;;17.70;7.65;;;;;;;18.04;54.60;101018.59;4994507;28;20034;-51
2022/11/14 00:50:38;;;;;;;21.48;7.60;;;;;;;18.05;54.58;101021.16;4997768;28;20045;-51
2022/11/14 00:53:04;;;;;;;16.95;6.93;;;;;;;18.05;54.66;101009.78;4996394;28;21209;-52
2022/11/14 00:55:29;;;;;;;17.88;8.05;;;;;;;18.04;54.70;101015.97;4996090;28;20215;-48
2022/11/14 00:57:55;;;;;;;18.63;7.97;;;;;;;18.04;54.51;101008.94;4997774;28;20542;-51
2022/11/14 01:00:20;;;;;;;20.10;8.13;;;;;;;18.03;54.55;101003.78;4996334;28;20096;-49
2022/11/14 01:02:45;;;;;;;18.77;7.85;;;;;;;18.03;54.54;100999.38;4996289;28;20084;-51
2022/11/14 01:05:11;;;;;;;22.65;9.32;;;;;;;18.04;54.75;100994.94;4995962;28;20084;-51
2022/11/14 01:07:36;;;;;;;17.75;7.82;;;;;;;18.03;54.52;100995.88;5006728;28;20052;-51
2022/11/14 01:10:02;;;;;;;18.13;8.50;;;;;;;18.03;54.53;100993.25;5017842;28;20044;-51
2022/11/14 01:12:27;;;;;;;19.55;8.65;;;;;;;18.02;54.75;100997.66;5016593;28;20091;-48
2022/11/14 01:14:53;;;;;;;13.05;6.60;;;;;;;18.01;54.57;100993.31;5018751;28;20120;-49
2022/11/14 01:17:18;;;;;;;17.27;7.25;;;;;;;18.01;54.67;100995.09;5016843;28;20029;-50
2022/11/14 01:19:44;;;;;;;22.40;9.05;;;;;;;18.00;54.61;100993.41;5019016;28;20057;-49
2022/11/14 01:22:09;;;;;;;14.68;7.05;;;;;;;18.00;54.67;100990.78;5018199;28;20048;-48
2022/11/14 01:24:34;;;;;;;19.55;7.82;;;;;;;17.99;54.56;100991.69;5018408;28;20098;-49
2022/11/14 01:27:00;;;;;;;23.90;7.82;;;;;;;17.99;54.47;100986.44;5016386;28;20034;-49
2022/11/14 01:29:26;;;;;;;20.05;8.80;;;;;;;17.98;54.43;100987.34;5017955;28;20482;-48
2022/11/14 01:31:51;;;;;;;18.48;8.30;;;;;;;17.98;54.58;100982.94;5008495;28;20038;-49
2022/11/14 01:34:17;;;;;;;16.63;7.25;;;;;;;17.98;54.58;100979.47;5015578;28;20044;-50
2022/11/14 01:36:42;;;;;;;20.05;8.80;;;;;;;17.98;54.58;100982.09;5015936;28;20053;-49
2022/11/14 01:39:07;;;;;;;17.45;7.78;;;;;;;17.99;54.43;100975.91;5018508;28;20087;-50
2022/11/14 01:41:33;;;;;;;16.05;6.68;;;;;;;17.97;54.41;100975.16;5015981;28;20060;-50
2022/11/14 01:43:58;;;;;;;19.17;8.25;;;;;;;17.97;54.43;100972.53;5013479;28;20494;-52
2022/11/14 01:46:32;;;;;;;23.50;8.93;;;;;;;17.97;54.31;100972.53;5016676;28;20157;-48
2022/11/14 01:49:01;;;;;;;16.73;6.55;;;;;;;17.97;54.33;100972.53;5013891;28;20037;-49
2022/11/14 01:52:04;;;;;;;21.30;8.23;;;;;;;17.95;54.46;100969.94;5011415;28;20205;-50
2022/11/14 01:54:33;;;;;;;19.45;8.13;;;;;;;17.95;54.58;100961.22;4957018;28;20194;-49
2022/11/14 01:57:00;;;;;;;19.17;7.93;;;;;;;17.94;54.42;100965.63;5002046;28;20029;-48
2022/11/14 01:59:49;;;;;;;18.80;8.35;;;;;;;17.94;54.32;100960.38;5017797;28;20045;-49
2022/11/14 02:02:20;;;;;;;20.92;8.05;;;;;;;17.95;54.39;100951.53;5015758;28;20379;-48
2022/11/14 02:04:56;;;;;;;15.55;7.55;;;;;;;17.95;54.24;100958.56;5011046;28;20041;-49
2022/11/14 02:07:25;;;;;;;17.30;7.95;;;;;;;17.95;54.22;100954.19;5016722;28;20057;-48
2022/11/14 02:09:50;;;;;;;12.38;6.22;;;;;;;17.94;54.42;100954.28;5016551;28;20034;-48
2022/11/14 02:12:17;;;;;;;13.00;5.90;;;;;;;17.94;54.44;100951.63;5017088;28;20034;-48
2022/11/14 02:14:45;;;;;;;12.10;5.85;;;;;;;17.92;54.45;100949.06;5011654;28;20057;-50
2022/11/14 02:17:13;;;;;;;20.48;7.55;;;;;;;17.92;54.38;100950.84;5017017;28;20490;-52
2022/11/14 02:19:50;;;;;;;13.98;6.82;;;;;;;17.92;54.50;100951.69;5013084;28;20140;-47
2022/11/14 02:22:15;;;;;;;17.63;8.90;;;;;;;17.93;54.31;100955.19;5011078;28;20506;-45
2022/11/14 02:24:41;;;;;;;17.08;7.75;;;;;;;17.92;54.39;100961.34;5015654;28;20086;-45
2022/11/14 02:27:08;;;;;;;21.73;8.18;;;;;;;17.91;54.37;100952.66;5016826;28;20045;-44
2022/11/14 02:29:35;;;;;;;18.23;7.93;;;;;;;17.91;54.51;100952.66;5012957;28;20075;-45
2022/11/14 02:32:01;;;;;;;13.52;6.95;;;;;;;17.91;54.33;100949.16;5009741;28;20038;-44
2022/11/14 02:34:26;;;;;;;17.55;8.10;;;;;;;17.91;54.54;100949.16;5016089;28;20080;-45
2022/11/14 02:36:52;;;;;;;14.00;6.97;;;;;;;17.90;54.32;100945.66;5010616;28;20498;-45
2022/11/14 02:39:18;;;;;;;19.67;9.55;;;;;;;17.90;54.22;100944.81;5013010;28;20061;-44
2022/11/14 02:41:43;;;;;;;15.63;6.65;;;;;;;17.88;54.32;100942.28;5017088;28;20125;-46
2022/11/14 02:44:08;;;;;;;13.43;5.47;;;;;;;17.89;54.29;100945.72;5013370;28;20041;-45
2022/11/14 02:46:34;;;;;;;16.63;7.38;;;;;;;17.89;54.33;100943.09;5018358;28;20505;-44
2022/11/14 02:48:59;;;;;;;15.90;7.60;;;;;;;17.88;54.16;100936.16;5015277;28;20037;-45
2022/11/14 02:51:24;;;;;;;17.80;8.10;;;;;;;17.87;54.33;100944.97;5012097;28;20045;-44
2022/11/14 02:53:50;;;;;;;15.73;6.57;;;;;;;17.87;54.29;100943.19;5011406;28;20522;-46
2022/11/14 02:56:15;;;;;;;15.93;6.57;;;;;;;17.88;54.19;100941.41;5016909;28;20041;-44
2022/11/14 02:58:41;;;;;;;18.02;7.38;;;;;;;17.87;54.24;100940.56;5014067;28;20151;-44
2022/11/14 03:01:06;;;;;;;14.52;6.82;;;;;;;17.86;54.16;100938.00;5015464;28;20045;-46
2022/11/14 03:03:32;;;;;;;13.88;6.55;;;;;;;17.84;54.16;100935.47;5015895;28;20025;-44
2022/11/14 03:05:59;;;;;;;14.63;5.95;;;;;;;17.86;54.35;100940.63;5022138;28;20033;-44
2022/11/14 03:08:24;;;;;;;13.77;5.55;;;;;;;17.85;54.22;100941.56;5019997;28;20550;-44
2022/11/14 03:10:50;;;;;;;15.00;6.22;;;;;;;17.84;54.22;100937.22;5018542;28;20136;-46
2022/11/14 03:13:15;;;;;;;14.32;6.15;;;;;;;17.83;54.26;100923.22;5018932;28;20086;-48
2022/11/14 03:15:41;;;;;;;16.92;6.40;;;;;;;17.84;54.33;100926.72;5015067;28;20060;-45
2022/11/14 03:18:06;;;;;;;17.85;7.03;;;;;;;17.83;54.18;100928.50;5016982;28;20030;-44
2022/11/14 03:20:31;;;;;;;15.75;6.20;;;;;;;17.83;54.30;100931.13;5019408;28;20406;-48
2022/11/14 03:22:57;;;;;;;16.05;6.20;;;;;;;17.84;54.21;100927.56;5016741;28;20037;-44
2022/11/14 03:25:22;;;;;;;13.50;5.65;;;;;;;17.81;54.25;100919.84;5019302;28;20037;-46
2022/11/14 03:27:47;;;;;;;16.27;7.00;;;;;;;17.81;54.18;100924.22;5018704;28;20033;-45
2022/11/14 03:30:13;;;;;;;18.75;8.10;;;;;;;17.81;54.18;100919.84;5023026;28;20599;-44
2022/11/14 03:32:38;;;;;;;14.65;7.10;;;;;;;17.81;54.22;100917.22;5019613;28;20034;-44
2022/11/14 03:35:04;;;;;;;13.93;5.72;;;;;;;17.80;54.22;100915.50;5023235;28;20033;-46
2022/11/14 03:37:30;;;;;;;14.63;6.68;;;;;;;17.79;54.09;100911.19;5019800;28;20029;-45
2022/11/14 03:39:55;;;;;;;13.80;6.10;;;;;;;17.80;54.11;100912.03;5023004;28;20045;-44
2022/11/14 03:42:20;;;;;;;13.85;6.03;;;;;;;17.79;54.14;100908.56;5022561;28;20044;-44
2022/11/14 03:44:46;;;;;;;12.95;5.50;;;;;;;17.80;54.07;100909.41;5023899;28;20041;-44
2022/11/14 03:47:11;;;;;;;16.95;6.70;;;;;;;17.79;54.22;100903.31;5023357;28;20399;-45
2022/11/14 03:49:36;;;;;;;13.88;6.40;;;;;;;17.78;54.15;100909.47;5020659;28;20055;-44
2022/11/14 03:52:02;;;;;;;13.70;6.05;;;;;;;17.78;54.09;100903.38;5022066;28;20036;-45
2022/11/14 03:54:27;;;;;;;12.05;4.97;;;;;;;17.79;54.14;100905.06;5021514;28;20044;-44
2022/11/14 03:56:53;;;;;;;13.85;6.07;;;;;;;17.77;54.04;100902.50;5023378;28;20570;-44
2022/11/14 03:59:18;;;;;;;18.67;8.45;;;;;;;17.78;54.02;100896.34;5019845;28;20056;-44
2022/11/14 04:01:43;;;;;;;20.50;7.75;;;;;;;17.78;53.96;100891.06;5020359;28;20037;-45
2022/11/14 04:04:11;;;;;;;13.93;6.20;;;;;;;17.77;54.09;100896.44;5020857;28;20061;-46
2022/11/14 04:06:37;;;;;;;12.25;5.90;;;;;;;17.77;53.94;100892.00;5018589;28;20033;-47
2022/11/14 04:09:02;;;;;;;17.38;8.65;;;;;;;17.77;54.15;100894.63;5018069;28;20812;-44
2022/11/14 04:11:28;;;;;;;15.25;6.97;;;;;;;17.76;53.74;100887.69;5018065;28;20042;-45
2022/11/14 04:13:53;;;;;;;10.25;5.43;;;;;;;17.75;53.77;100880.72;5019226;28;20033;-44
2022/11/14 04:16:18;;;;;;;17.08;6.93;;;;;;;17.75;54.00;100883.34;5019865;28;20026;-47
2022/11/14 04:18:44;;;;;;;18.55;8.63;;;;;;;17.75;53.82;100885.97;5018760;28;20037;-45
2022/11/14 04:21:09;;;;;;;11.65;5.82;;;;;;;17.75;54.00;100880.72;5018288;28;20687;-46
2022/11/14 04:23:34;;;;;;;16.25;7.55;;;;;;;17.76;53.61;100881.56;5019059;28;20049;-47
2022/11/14 04:26:00;;;;;;;15.00;6.78;;;;;;;17.74;54.05;100881.63;5018410;28;20044;-44
2022/11/14 04:28:26;;;;;;;14.35;7.03;;;;;;;17.73;53.82;100881.72;5019092;28;20115;-45
2022/11/14 04:30:51;;;;;;;15.32;6.82;;;;;;;17.73;53.83;100879.94;5019335;28;20419;-46
2022/11/14 04:33:16;;;;;;;17.23;7.10;;;;;;;17.74;53.92;100872.94;5016901;28;20033;-45
2022/11/14 04:35:42;;;;;;;12.25;5.80;;;;;;;17.72;53.81;100875.63;5017538;28;20044;-46
2022/11/14 04:38:08;;;;;;;16.60;6.80;;;;;;;17.72;53.85;100880.00;5017069;28;20174;-44
2022/11/14 04:40:34;;;;;;;14.30;6.57;;;;;;;17.71;53.96;100871.28;5018515;28;20040;-44
2022/11/14 04:42:59;;;;;;;9.60;5.57;;;;;;;17.70;53.69;100869.59;5014719;28;20402;-44
2022/11/14 04:45:24;;;;;;;16.70;6.38;;;;;;;17.71;53.92;100868.66;5017998;28;20040;-47
2022/11/14 04:47:50;;;;;;;13.65;6.45;;;;;;;17.71;53.86;100860.75;5017021;28;20127;-45
2022/11/14 04:50:15;;;;;;;17.65;6.85;;;;;;;17.70;53.78;100868.72;5013870;28;20561;-45
2022/11/14 04:52:41;;;;;;;17.33;8.60;;;;;;;17.70;53.83;100872.22;5016002;28;20079;-45
2022/11/14 04:55:07;;;;;;;14.00;5.93;;;;;;;17.69;53.81;100869.66;5019693;28;20401;-46
2022/11/14 04:57:32;;;;;;;22.98;10.43;;;;;;;17.70;53.80;100874.00;5015754;28;20030;-46
2022/11/14 04:59:57;;;;;;;14.63;7.10;;;;;;;17.70;53.75;100877.47;5015587;28;21797;-45
2022/11/14 05:02:23;;;;;;;16.33;7.15;;;;;;;17.70;53.72;100869.59;5014067;28;20042;-45
2022/11/14 05:04:48;;;;;;;15.80;6.90;;;;;;;17.70;53.79;100866.09;5018340;28;20041;-48
2022/11/14 05:07:14;;;;;;;17.35;7.57;;;;;;;17.67;53.72;100867.09;5019181;28;20065;-46
2022/11/14 05:09:39;;;;;;;9.90;5.38;;;;;;;17.68;53.75;100865.34;5018497;28;20041;-44
2022/11/14 05:12:05;;;;;;;13.77;5.80;;;;;;;17.67;53.86;100863.63;5019844;28;20025;-45
2022/11/14 05:14:31;;;;;;;14.77;6.60;;;;;;;17.67;53.83;100861.84;5019345;28;20045;-46
2022/11/14 05:16:57;;;;;;;15.05;7.15;;;;;;;17.68;53.73;100857.47;5013566;28;20069;-43
2022/11/14 05:19:23;;;;;;;17.60;8.38;;;;;;;17.67;53.66;100866.25;5016285;28;20045;-48
2022/11/14 05:21:49;;;;;;;15.73;6.45;;;;;;;17.67;53.79;100863.63;5015984;28;20034;-45
2022/11/14 05:24:14;;;;;;;17.25;7.53;;;;;;;17.67;53.69;100863.63;5017280;28;20048;-44
2022/11/14 05:26:40;;;;;;;16.77;7.05;;;;;;;17.66;53.60;100860.16;5017811;28;20049;-45
2022/11/14 05:29:05;;;;;;;16.73;7.03;;;;;;;17.66;53.62;100852.25;5013009;28;20071;-45
2022/11/14 05:31:31;;;;;;;14.70;6.63;;;;;;;17.66;53.65;100849.63;5016062;28;20847;-47
2022/11/14 05:33:56;;;;;;;13.48;5.82;;;;;;;17.66;53.76;100854.03;5014967;28;20099;-44
2022/11/14 05:36:22;;;;;;;16.08;6.50;;;;;;;17.65;53.51;100847.09;5016272;28;20423;-46
2022/11/14 05:38:47;;;;;;;16.27;7.32;;;;;;;17.64;53.62;100841.00;5019021;28;20037;-47
2022/11/14 05:41:18;;;;;;;13.88;5.97;;;;;;;17.63;53.42;100839.28;5017361;28;20106;-45
2022/11/14 05:43:44;;;;;;;11.18;5.50;;;;;;;17.63;53.67;100838.41;5016217;28;20033;-44
2022/11/14 05:46:11;;;;;;;14.85;7.60;;;;;;;17.63;53.61;100838.41;5015434;28;20652;-45
2022/11/14 05:48:37;;;;;;;15.07;6.28;;;;;;;17.65;53.44;100841.84;5015880;28;20038;-45
2022/11/14 05:51:04;;;;;;;18.92;6.80;;;;;;;17.67;53.38;100838.22;5015821;28;20029;-44
2022/11/14 05:53:32;;;;;;;14.43;5.05;;;;;;;17.70;53.20;100827.56;5015827;28;20069;-45
2022/11/14 05:56:05;;;;;;;14.23;6.85;;;;;;;17.75;53.26;100832.56;5015825;28;20150;-47
2022/11/14 05:58:31;;;;;;;20.85;8.23;;;;;;;17.79;52.88;100839.38;5014121;28;20084;-44
2022/11/14 06:01:02;;;;;;;16.45;6.40;;;;;;;17.84;52.81;100830.34;5015837;28;20037;-45
2022/11/14 06:03:40;;;;;;;14.98;6.50;;;;;;;17.88;52.92;100831.03;5011470;28;20026;-45
2022/11/14 06:06:06;;;;;;;15.80;6.70;;;;;;;17.92;52.80;100828.16;5015634;28;20048;-44
2022/11/14 06:08:33;;;;;;;12.52;5.75;;;;;;;17.94;52.81;100821.06;5018623;28;20029;-44
2022/11/14 06:11:07;;;;;;;16.92;7.40;;;;;;;17.97;52.66;100823.56;5014119;28;20057;-44
2022/11/14 06:13:33;;;;;;;11.10;6.03;;;;;;;18.00;52.74;100819.91;5017706;28;20037;-46
2022/11/14 06:16:05;;;;;;;12.57;5.57;;;;;;;18.02;52.66;100818.91;5019998;28;20033;-47
2022/11/14 06:18:33;;;;;;;15.65;6.72;;;;;;;18.04;52.66;100824.91;5015392;28;20025;-44
2022/11/14 06:21:04;;;;;;;14.27;5.95;;;;;;;18.07;52.53;100818.66;5017139;28;20072;-48
2022/11/14 06:23:30;;;;;;;17.05;7.22;;;;;;;18.09;52.59;100822.06;5008690;28;20045;-45
2022/11/14 06:26:00;;;;;;;19.13;7.00;;;;;;;18.12;52.50;100828.00;5008416;28;20131;-45
2022/11/14 06:28:25;;;;;;;13.68;5.35;;;;;;;18.14;51.92;100827.94;5011500;28;20042;-47
2022/11/14 06:30:55;;;;;;;19.95;7.00;;;;;;;18.18;51.92;100820.75;5018668;28;20851;-46
2022/11/14 06:33:20;;;;;;;14.85;6.90;;;;;;;18.21;51.97;100821.44;5009255;28;20033;-45
2022/11/14 06:35:45;;;;;;;14.35;6.15;;;;;;;18.25;52.14;100825.59;5018989;28;20083;-46
2022/11/14 06:38:11;;;;;;;17.75;7.13;;;;;;;18.27;51.88;100836.06;5016653;28;20033;-47
2022/11/14 06:40:36;;;;;;;15.15;6.75;;;;;;;18.29;52.11;100832.41;5018638;28;20511;-48
2022/11/14 06:43:01;;;;;;;15.63;6.47;;;;;;;18.31;51.88;100825.28;5013997;28;20048;-47
2022/11/14 06:45:27;;;;;;;18.05;7.22;;;;;;;18.32;52.04;100818.25;5009488;28;20041;-46
2022/11/14 06:47:52;;;;;;;14.32;6.28;;;;;;;18.33;52.10;100819.97;5016674;28;20098;-46
2022/11/14 06:50:17;;;;;;;11.30;5.00;;;;;;;18.34;51.85;100811.97;5018388;28;20140;-45
2022/11/14 06:52:43;;;;;;;19.08;7.68;;;;;;;18.36;51.88;100819.81;5013050;28;20077;-45
2022/11/14 06:55:08;;;;;;;17.05;6.28;;;;;;;18.36;51.75;100818.00;5014652;28;20550;-45
2022/11/14 06:57:33;;;;;;;15.55;6.10;;;;;;;18.38;51.85;100817.94;5016904;28;20037;-44
2022/11/14 07:00:00;;;;;;;14.38;6.20;;;;;;;18.37;51.98;100814.44;5018067;28;20136;-44
2022/11/14 07:02:25;;;;;;;17.65;8.40;;;;;;;18.38;52.04;100818.78;5010122;28;20041;-46
2022/11/14 07:04:50;;;;;;;16.10;6.85;;;;;;;18.39;51.79;100817.84;5013435;28;20045;-43
2022/11/14 07:07:16;;;;;;;15.95;6.68;;;;;;;18.39;52.00;100817.84;5008690;28;20083;-47
2022/11/14 07:09:41;;;;;;;13.75;6.50;;;;;;;18.40;52.03;100813.44;5009820;28;20068;-46
2022/11/14 07:12:08;;;;;;;17.10;6.95;;;;;;;18.41;51.85;100816.00;5015284;28;20383;-46
2022/11/14 07:14:33;;;;;;;14.93;6.45;;;;;;;18.43;51.78;100813.28;5016803;28;20045;-47
2022/11/14 07:16:59;;;;;;;15.20;6.28;;;;;;;18.42;51.86;100812.41;5011860;28;20048;-45
2022/11/14 07:19:24;;;;;;;23.77;9.23;;;;;;;18.42;51.83;100816.84;5015531;28;20393;-46
2022/11/14 07:21:50;;;;;;;17.65;8.45;;;;;;;18.44;51.64;100817.63;5010860;28;20041;-46
2022/11/14 07:24:15;;;;;;;14.27;5.53;;;;;;;18.45;51.59;100816.69;5000497;28;21084;-47
2022/11/14 07:26:41;;;;;;;22.17;7.93;;;;;;;18.49;51.81;100823.50;4989982;28;20125;-47
2022/11/14 07:29:06;;;;;;;19.58;7.10;;;;;;;18.53;51.89;100819.78;4994671;28;20061;-48
2022/11/14 07:31:31;;;;;;;11.95;5.45;;;;;;;18.58;51.99;100821.25;4989774;28;78615;-43
2022/11/14 07:33:57;;;;;;;21.42;6.95;;;;;;;18.66;51.88;100818.19;4999272;28;20037;-45
2022/11/14 07:36:22;;;;;;;16.05;6.50;;;;;;;18.69;51.86;100810.97;5013795;28;20025;-46
2022/11/14 07:38:48;;;;;;;16.80;6.55;;;;;;;18.73;52.11;100811.66;5009359;28;20050;-45
2022/11/14 07:41:15;;;;;;;16.52;6.72;;;;;;;18.77;52.24;100822.91;5003289;28;20069;-47
2022/11/14 07:43:41;;;;;;;20.63;7.38;;;;;;;18.79;52.29;100823.66;5005376;28;20101;-45
2022/11/14 07:46:15;;;;;;;16.98;7.07;;;;;;;18.82;52.38;100826.13;5015430;28;20045;-46
2022/11/14 07:48:41;;;;;;;17.80;7.03;;;;;;;18.84;52.61;100821.63;4996129;28;20022;-46
2022/11/14 07:51:09;;;;;;;17.17;7.18;;;;;;;18.87;52.58;100822.28;4988112;28;20030;-45
2022/11/14 07:53:34;;;;;;;19.55;7.95;;;;;;;18.89;52.75;100816.97;4994130;28;20092;-45
2022/11/14 07:56:10;;;;;;;15.85;6.82;;;;;;;18.91;52.76;100821.22;4992711;28;20220;-47
2022/11/14 07:58:40;;;;;;;19.88;7.43;;;;;;;18.93;52.77;100831.63;4997987;28;20041;-44
2022/11/14 08:01:08;;;;;;;18.38;7.82;;;;;;;18.97;52.74;100822.66;4992097;28;20042;-46
2022/11/14 08:03:59;;;;;;;13.10;5.65;;;;;;;22.97;52.59;100818.25;5043903;28;20412;-47
2022/11/14 08:06:24;;;;;;;14.65;6.03;;;;;;;23.03;52.78;100828.44;4988736;28;75747;-47
2022/11/14 08:09:33;;;;;;;12.38;5.40;;;;;;;22.16;52.65;100819.50;5028400;27;20123;-49
2022/11/14 08:11:58;;;;;;;15.13;6.03;;;;;;;22.16;52.81;100816.88;5018552;28;20395;-49
2022/11/14 08:14:24;;;;;;;18.02;6.47;;;;;;;22.19;52.84;100803.56;5006574;28;20127;-46
2022/11/14 08:16:49;;;;;;;18.65;7.38;;;;;;;22.21;52.84;100801.66;5007345;28;20128;-46
2022/11/14 08:19:15;;;;;;;16.15;7.78;;;;;;;22.23;52.76;100794.56;5012935;28;20045;-49
2022/11/14 08:21:41;;;;;;;16.83;6.88;;;;;;;22.24;52.91;100789.19;5013709;28;20029;-47
2022/11/14 08:24:07;;;;;;;10.85;5.47;;;;;;;22.25;52.95;100787.41;5017842;28;20033;-45
2022/11/14 08:26:33;;;;;;;17.38;6.75;;;;;;;22.26;52.89;100786.47;5012687;28;20141;-44
2022/11/14 08:28:58;;;;;;;10.25;4.75;;;;;;;22.27;52.81;100783.75;5013652;28;20537;-47
2022/11/14 08:31:24;;;;;;;14.38;6.18;;;;;;;22.28;52.77;100781.97;5010542;28;20042;-45
2022/11/14 08:33:51;;;;;;;13.52;5.93;;;;;;;22.29;52.41;100779.22;5008924;28;20450;-49
2022/11/14 08:36:16;;;;;;;16.05;6.25;;;;;;;22.29;52.84;100779.22;5012890;28;20027;-48
2022/11/14 08:38:42;;;;;;;14.95;6.53;;;;;;;22.31;52.79;100781.81;5008474;28;20041;-45
2022/11/14 08:41:07;;;;;;;13.57;5.70;;;;;;;22.31;52.77;100782.66;4997766;28;20511;-44
2022/11/14 08:43:32;;;;;;;16.67;7.43;;;;;;;22.32;52.76;100781.69;5000823;28;20099;-44
2022/11/14 08:45:59;;;;;;;19.95;7.35;;;;;;;22.33;52.75;100787.81;5010052;28;20041;-51
2022/11/14 08:48:25;;;;;;;12.90;6.18;;;;;;;22.35;52.69;100788.59;5013248;28;20730;-58
2022/11/14 08:50:50;;;;;;;20.25;8.18;;;;;;;22.35;52.80;100786.78;5015496;28;20049;-51
2022/11/14 08:53:16;;;;;;;11.52;5.85;;;;;;;22.37;52.71;100789.34;5010148;28;20096;-55
2022/11/14 08:55:45;;;;;;;17.40;6.82;;;;;;;22.39;52.93;100789.28;5010928;28;20042;-58
2022/11/14 08:58:10;;;;;;;17.08;5.72;;;;;;;22.39;52.87;100790.13;5013473;28;20064;-57
2022/11/14 09:00:36;;;;;;;16.10;5.18;;;;;;;22.39;52.84;100792.78;5017967;28;20065;-52
2022/11/14 09:03:10;;;;;;;14.55;6.70;;;;;;;22.41;52.80;100798.81;5014001;28;20037;-58
2022/11/14 09:05:36;;;;;;;15.82;7.18;;;;;;;22.44;52.87;100803.06;5012978;28;20033;-59
2022/11/14 09:08:02;;;;;;;12.05;6.10;;;;;;;22.45;52.97;100796.84;5011480;28;20038;-50
2022/11/14 09:10:28;;;;;;;12.93;5.57;;;;;;;22.45;52.94;100807.38;5013345;28;20065;-56
2022/11/14 09:12:57;;;;;;;18.30;6.90;;;;;;;22.45;52.84;100808.22;5011836;28;20574;-58
2022/11/14 09:15:23;;;;;;;14.48;5.50;;;;;;;22.46;52.76;100804.69;5014186;28;20034;-56
2022/11/14 09:17:56;;;;;;;18.80;7.22;;;;;;;22.48;52.86;100807.19;5013332;28;20060;-47
2022/11/14 09:20:23;;;;;;;19.45;7.95;;;;;;;22.48;52.89;100802.78;5000273;28;20049;-56
2022/11/14 09:22:52;;;;;;;16.20;7.03;;;;;;;22.49;52.72;100806.28;4996930;28;20042;-55
2022/11/14 09:25:20;;;;;;;16.88;6.50;;;;;;;22.49;52.95;100798.38;5000295;28;20168;-56
2022/11/14 09:27:46;;;;;;;18.23;7.22;;;;;;;22.50;52.78;100798.28;4999810;28;20507;-57
2022/11/14 09:30:12;;;;;;;16.23;5.68;;;;;;;22.50;52.92;100790.38;5000606;28;20065;-56
2022/11/14 09:32:38;;;;;;;14.40;6.28;;;;;;;22.52;52.89;100800.84;4999751;28;20045;-58
2022/11/14 09:35:03;;;;;;;17.08;7.13;;;;;;;22.53;52.97;100787.56;4999184;28;20042;-53
2022/11/14 09:37:29;;;;;;;12.75;6.03;;;;;;;22.54;52.56;100788.41;4998816;28;20091;-56
2022/11/14 09:39:54;;;;;;;13.43;5.82;;;;;;;22.54;52.83;100789.28;4999208;28;20040;-58
2022/11/14 09:42:35;;;;;;;17.67;6.28;;;;;;;22.55;52.94;100785.72;5001777;28;20139;-58
2022/11/14 09:45:05;;;;;;;14.38;5.28;;;;;;;22.56;52.94;100799.72;4981954;28;20046;-58
2022/11/14 09:47:38;;;;;;;12.93;5.90;;;;;;;22.57;52.86;100786.47;4976338;28;20034;-58
2022/11/14 09:50:14;;;;;;;15.57;6.13;;;;;;;22.57;52.87;100793.50;4977088;28;20057;-57
2022/11/14 09:52:46;;;;;;;14.75;5.68;;;;;;;22.58;52.80;100787.31;4987135;28;20483;-57
2022/11/14 09:55:27;;;;;;;17.73;7.22;;;;;;;22.59;52.92;100783.75;4992726;28;20057;-60
2022/11/14 09:57:54;;;;;;;16.88;6.93;;;;;;;22.59;52.91;100789.84;5000631;28;20741;-59
2022/11/14 10:00:26;;;;;;;16.33;6.78;;;;;;;22.60;52.93;100780.16;4997408;28;20034;-58
2022/11/14 10:02:53;;;;;;;17.67;7.28;;;;;;;22.59;52.78;100781.94;4994432;28;20659;-57
2022/11/14 10:05:39;;;;;;;13.57;6.40;;;;;;;22.61;52.88;100774.81;4995047;28;20765;-57
2022/11/14 10:08:19;;;;;;;13.18;5.38;;;;;;;22.62;52.78;100773.88;4998562;28;20042;-54
2022/11/14 10:10:54;;;;;;;14.38;6.72;;;;;;;22.64;52.82;100763.25;4997026;28;20041;-58
2022/11/14 10:13:38;;;;;;;;;;;;;;;22.64;52.89;100768.53;5000167;28;20041;-55
2022/11/14 10:16:09;;;;;;;17.13;5.43;;;;;;;22.64;52.79;100769.38;5002552;28;19920;-57
2022/11/14 10:18:44;;;;;;;11.43;4.93;;;;;;;22.65;52.82;100770.22;4999052;28;20022;-53
2022/11/14 10:21:09;;;;;;;;;;;;;;;22.65;52.70;100771.03;5006178;28;20498;-56
2022/11/14 10:24:02;;;;;;;15.43;6.85;;;;;;;22.66;52.71;100772.75;4998838;28;20019;-56
2022/11/14 10:26:29;;;;;;;14.02;5.82;;;;;;;22.68;52.70;100770.03;4999585;28;20533;-59
2022/11/14 10:29:17;;;;;;;12.57;5.63;;;;;;;22.68;52.44;100776.13;4998413;28;20502;-59
2022/11/14 10:31:51;;;;;;;14.68;6.05;;;;;;;22.69;52.72;100777.84;4990574;28;20049;-59
2022/11/14 10:34:32;;;;;;;9.77;5.13;;;;;;;22.70;52.65;100776.91;4991643;28;20038;-56
2022/11/14 10:37:11;;;;;;;14.05;6.10;;;;;;;22.71;52.69;100785.69;5000583;28;20042;-54
2022/11/14 10:39:43;;;;;;;13.40;6.10;;;;;;;22.73;52.55;100776.75;5001476;28;20033;-55
2022/11/14 10:42:24;;;;;;;12.45;6.05;;;;;;;22.74;52.66;100772.31;4994830;28;20449;-55
2022/11/14 10:45:24;;;;;;;15.05;6.78;;;;;;;22.76;52.55;100770.44;4996455;28;20080;-58
2022/11/14 10:48:02;;;;;;;17.90;6.18;;;;;;;22.76;52.44;100780.97;4987441;28;20038;-60
2022/11/14 10:50:40;;;;;;;14.65;5.28;;;;;;;22.75;52.56;100777.50;4998988;28;20034;-54
2022/11/14 10:53:32;;;;;;;12.68;5.57;;;;;;;22.76;52.51;100773.06;4994553;28;20176;-59
2022/11/14 10:55:58;;;;;;;15.75;7.25;;;;;;;22.76;52.61;100771.28;4996431;28;20093;-58
2022/11/14 10:58:24;;;;;;;14.93;7.25;;;;;;;22.78;52.55;100763.28;4997020;28;20129;-58
2022/11/14 11:00:49;;;;;;;13.77;6.38;;;;;;;22.78;52.46;100752.75;4998107;28;20084;-58
2022/11/14 11:03:15;;;;;;;15.25;6.75;;;;;;;22.78;52.44;100760.66;4997747;28;20041;-59
2022/11/14 11:05:58;;;;;;;12.38;6.10;;;;;;;22.77;52.33;100757.16;4997003;28;20068;-60
2022/11/14 11:11:28;;;;;;;13.00;5.60;;;;;;;22.76;52.44;100742.31;4996620;28;20053;-57
2022/11/14 11:13:55;;;;;;;14.05;6.07;;;;;;;22.79;52.51;100746.53;4998550;28;20129;-54
2022/11/14 11:16:23;;;;;;;15.07;6.50;;;;;;;22.79;52.62;100747.41;4993347;28;20065;-54
2022/11/14 11:18:49;;;;;;;12.80;5.88;;;;;;;22.79;52.43;100750.03;4995763;28;20029;-52
2022/11/14 11:21:17;;;;;;;15.90;5.75;;;;;;;22.79;52.43;100743.91;4996892;28;20914;-50
2022/11/14 11:23:54;;;;;;;13.57;6.00;;;;;;;22.79;52.39;100733.38;4989937;28;20040;-50